Portada
METAR-TAF:

METAR-TAF

Aeroports :

Marshalltown Municipal Airport

Marshalltown, Iowa, Estats Units d'Amèrica

latitud: 42-06-38N, longitud: 092-54-58W, altitud: 296 m

Observació

L'informe es va fer fa 15 minuts, a les 12:53 UTC
Vent 6 kt del Est/Sud-Est
Temperatura 21°C
Humitat 100%
Pressió 1011 hPa
Visibilitat: 16.1 km
Cel ennuvolat a una alçada de 1100 ft

METAR: KMIW 201253Z AUTO 12006KT 10SM BKN011 21/21 A2984 RMK AO2 SLP098 T02110211

Hora: 08:08 (13:08 UTC)


TAF: manca

Observacions i pronòstics meteorològics de més de 4000 aeroports (METAR i TAF).

Les estacions disponibles són els punts grocs i vermells al mapa.

Posi el ratolí al punt desitjat per veure el nom de l'estació.

Feu clic per veure les observacions i els pronòstics meteorològics.

Per canviar el mapa: feu clic els botons verds amb una creu de color negre per apropar; al botó verd amb un guió per allunyar la imatge; o en les fletxes verdes per a mapes adjacents.


METAR-TAF: